createdAt,value
2018-09-07T00:00:40.837Z,16.88
2018-09-07T00:01:42.218Z,16.81
2018-09-07T00:02:43.610Z,16.77
2018-09-07T00:03:44.985Z,16.73
2018-09-07T00:04:46.396Z,16.73
2018-09-07T00:05:47.751Z,16.69
2018-09-07T00:06:49.136Z,16.73
2018-09-07T00:07:50.527Z,16.67
2018-09-07T00:08:51.911Z,16.73
2018-09-07T00:09:53.305Z,16.70
2018-09-07T00:10:54.682Z,16.62
2018-09-07T00:11:56.071Z,16.66
2018-09-07T00:12:57.460Z,16.65
2018-09-07T00:13:58.849Z,16.67
2018-09-07T00:15:00.227Z,16.67
2018-09-07T00:16:01.621Z,16.70
2018-09-07T00:17:03.004Z,16.63
2018-09-07T00:18:04.406Z,16.59
2018-09-07T00:19:05.783Z,16.65
2018-09-07T00:20:07.172Z,16.69
2018-09-07T00:21:08.556Z,16.67
2018-09-07T00:22:09.937Z,16.66
2018-09-07T00:23:11.321Z,16.67
2018-09-07T00:24:12.704Z,16.66
2018-09-07T00:25:14.087Z,16.67
2018-09-07T00:26:15.477Z,16.65
2018-09-07T00:27:16.873Z,16.62
2018-09-07T00:28:18.250Z,16.69
2018-09-07T00:29:19.632Z,16.63
2018-09-07T00:30:21.017Z,16.60
2018-09-07T00:31:22.414Z,16.67
2018-09-07T00:32:23.801Z,16.60
2018-09-07T00:33:25.190Z,16.66
2018-09-07T00:34:26.578Z,16.69
2018-09-07T00:35:27.957Z,16.65
2018-09-07T00:36:29.337Z,16.69
2018-09-07T00:37:30.728Z,16.69
2018-09-07T00:38:32.106Z,16.66
2018-09-07T00:39:33.492Z,16.60
2018-09-07T00:40:34.876Z,16.60
2018-09-07T00:41:36.255Z,16.65
2018-09-07T00:42:37.638Z,16.70
2018-09-07T00:43:39.026Z,16.67
2018-09-07T00:44:40.416Z,16.60
2018-09-07T00:45:41.800Z,16.60
2018-09-07T00:46:43.196Z,16.62
2018-09-07T00:47:45.457Z,16.65
2018-09-07T00:48:46.840Z,16.62
2018-09-07T00:49:48.224Z,16.62
2018-09-07T00:50:49.618Z,16.57
2018-09-07T00:51:51.000Z,16.52
2018-09-07T00:52:52.387Z,16.59
2018-09-07T00:53:53.766Z,16.57
2018-09-07T00:54:55.153Z,16.54
2018-09-07T00:55:56.538Z,16.62
2018-09-07T00:56:57.930Z,16.57
2018-09-07T00:57:59.321Z,16.60
2018-09-07T00:59:00.709Z,16.62
2018-09-07T01:00:02.094Z,16.66
2018-09-07T01:01:03.477Z,16.63
2018-09-07T01:02:04.866Z,16.59
2018-09-07T01:03:06.249Z,16.59
2018-09-07T01:04:07.638Z,16.65
2018-09-07T01:05:09.019Z,16.72
2018-09-07T01:06:10.401Z,16.55
2018-09-07T01:07:11.786Z,16.59
2018-09-07T01:08:13.167Z,16.57
2018-09-07T01:09:14.554Z,16.60
2018-09-07T01:10:15.944Z,16.59
2018-09-07T01:11:17.322Z,16.62
2018-09-07T01:12:18.712Z,16.65
2018-09-07T01:13:20.092Z,16.66
2018-09-07T01:14:21.480Z,16.51
2018-09-07T01:15:22.928Z,16.51
2018-09-07T01:16:24.210Z,16.54
2018-09-07T01:17:25.595Z,16.55
2018-09-07T01:18:26.986Z,16.55
2018-09-07T01:19:28.370Z,16.57
2018-09-07T01:20:29.756Z,16.60
2018-09-07T01:21:31.149Z,16.47
2018-09-07T01:22:32.529Z,16.50
2018-09-07T01:23:33.926Z,16.50
2018-09-07T01:24:35.314Z,16.55
2018-09-07T01:25:36.704Z,16.51
2018-09-07T01:26:38.096Z,16.51
2018-09-07T01:27:39.487Z,16.55
2018-09-07T01:28:40.876Z,16.55
2018-09-07T01:29:42.256Z,16.51
2018-09-07T01:30:43.643Z,16.48
2018-09-07T01:31:45.047Z,16.48
2018-09-07T01:32:46.430Z,16.44
2018-09-07T01:33:47.818Z,16.34
2018-09-07T01:34:49.196Z,16.45
2018-09-07T01:35:50.589Z,16.37
2018-09-07T01:36:51.960Z,16.40
2018-09-07T01:37:53.351Z,16.45
2018-09-07T01:38:54.732Z,16.45
2018-09-07T01:39:56.114Z,16.42
2018-09-07T01:40:57.504Z,16.40
2018-09-07T01:41:58.888Z,16.40
2018-09-07T01:43:00.274Z,16.36
2018-09-07T01:44:01.656Z,16.23
2018-09-07T01:45:03.096Z,16.26
2018-09-07T01:46:04.428Z,16.25
2018-09-07T01:47:05.811Z,16.25
2018-09-07T01:48:07.206Z,16.23
2018-09-07T01:49:08.587Z,16.22
2018-09-07T01:50:09.974Z,16.25
2018-09-07T01:51:11.350Z,16.27
2018-09-07T01:52:12.732Z,16.29
2018-09-07T01:53:14.113Z,16.25
2018-09-07T01:54:15.499Z,16.27
2018-09-07T01:55:16.887Z,16.25
2018-09-07T01:56:18.271Z,16.23
2018-09-07T01:57:19.655Z,16.26
2018-09-07T01:58:21.039Z,16.25
2018-09-07T01:59:22.433Z,16.18
2018-09-07T02:00:23.825Z,16.17
2018-09-07T02:01:25.207Z,16.22
2018-09-07T02:02:26.596Z,16.25
2018-09-07T02:03:27.979Z,16.16
2018-09-07T02:04:29.367Z,16.10
2018-09-07T02:05:30.752Z,16.10
2018-09-07T02:06:32.131Z,16.14
2018-09-07T02:07:33.517Z,16.16
2018-09-07T02:08:34.900Z,16.14
2018-09-07T02:09:36.292Z,16.17
2018-09-07T02:10:37.672Z,16.13
2018-09-07T02:11:39.067Z,16.17
2018-09-07T02:12:40.450Z,16.23
2018-09-07T02:13:41.828Z,16.11
2018-09-07T02:14:43.216Z,16.06
2018-09-07T02:15:44.610Z,16.06
2018-09-07T02:16:45.981Z,16.03
2018-09-07T02:17:47.370Z,16.10
2018-09-07T02:18:48.752Z,16.08
2018-09-07T02:19:50.137Z,16.08
2018-09-07T02:20:51.527Z,16.03
2018-09-07T02:21:52.912Z,16.13
2018-09-07T02:22:54.287Z,16.08
2018-09-07T02:23:55.673Z,16.10
2018-09-07T02:24:57.067Z,16.13
2018-09-07T02:25:58.457Z,16.17
2018-09-07T02:26:59.837Z,16.13
2018-09-07T02:28:01.223Z,16.16
2018-09-07T02:29:02.603Z,16.23
2018-09-07T02:30:03.989Z,16.22
2018-09-07T02:31:05.362Z,16.08
2018-09-07T02:32:06.748Z,16.10
2018-09-07T02:33:08.138Z,16.07
2018-09-07T02:34:09.516Z,16.16
2018-09-07T02:35:10.901Z,16.18
2018-09-07T02:36:12.290Z,16.06
2018-09-07T02:37:13.670Z,16.08
2018-09-07T02:38:15.062Z,16.07
2018-09-07T02:39:16.445Z,16.07
2018-09-07T02:40:17.822Z,16.06
2018-09-07T02:41:19.211Z,16.08
2018-09-07T02:42:20.591Z,16.11
2018-09-07T02:43:21.979Z,16.08
2018-09-07T02:44:23.364Z,16.08
2018-09-07T02:45:24.749Z,16.11
2018-09-07T02:46:26.141Z,16.04
2018-09-07T02:47:27.519Z,16.22
2018-09-07T02:48:28.909Z,16.07
2018-09-07T02:49:30.295Z,16.07
2018-09-07T02:50:31.681Z,16.07
2018-09-07T02:51:33.067Z,16.07
2018-09-07T02:52:34.456Z,16.08
2018-09-07T02:53:35.833Z,16.07
2018-09-07T02:54:37.211Z,16.07
2018-09-07T02:55:38.598Z,16.16
2018-09-07T02:56:39.984Z,16.03
2018-09-07T02:57:41.358Z,16.10
2018-09-07T02:58:42.752Z,16.08
2018-09-07T02:59:44.132Z,16.11
2018-09-07T03:00:45.511Z,16.22
2018-09-07T03:01:46.884Z,16.07
2018-09-07T03:02:48.376Z,16.18
2018-09-07T03:03:49.756Z,16.17
2018-09-07T03:04:51.135Z,16.04
2018-09-07T03:05:52.518Z,16.17
2018-09-07T03:06:53.900Z,16.16
2018-09-07T03:07:55.289Z,16.08
2018-09-07T03:08:56.681Z,16.14
2018-09-07T03:09:58.068Z,16.06
2018-09-07T03:10:59.450Z,16.08
2018-09-07T03:12:00.834Z,16.14
2018-09-07T03:13:02.213Z,16.10
2018-09-07T03:14:03.590Z,16.07
2018-09-07T03:15:04.980Z,16.11
2018-09-07T03:16:06.354Z,16.06
2018-09-07T03:17:07.746Z,16.13
2018-09-07T03:18:09.132Z,16.06
2018-09-07T03:19:10.510Z,16.01
2018-09-07T03:20:11.893Z,16.11
2018-09-07T03:21:13.276Z,16.03
2018-09-07T03:22:14.670Z,16.08
2018-09-07T03:23:16.062Z,15.95
2018-09-07T03:24:17.429Z,16.06
2018-09-07T03:25:18.811Z,16.06
2018-09-07T03:26:20.197Z,15.99
2018-09-07T03:27:21.577Z,16.01
2018-09-07T03:28:22.965Z,15.93
2018-09-07T03:29:24.344Z,15.91
2018-09-07T03:30:25.744Z,15.93
2018-09-07T03:31:27.126Z,15.91
2018-09-07T03:32:28.509Z,15.99
2018-09-07T03:33:29.896Z,15.96
2018-09-07T03:34:31.280Z,15.92
2018-09-07T03:35:32.658Z,15.86
2018-09-07T03:36:34.048Z,15.88
2018-09-07T03:37:35.440Z,15.89
2018-09-07T03:38:36.810Z,15.86
2018-09-07T03:39:38.198Z,15.89
2018-09-07T03:40:39.572Z,15.88
2018-09-07T03:41:40.959Z,15.89
2018-09-07T03:42:42.372Z,15.85
2018-09-07T03:43:43.733Z,15.88
2018-09-07T03:44:45.137Z,15.80
2018-09-07T03:45:46.521Z,15.85
2018-09-07T03:46:47.906Z,15.76
2018-09-07T03:47:49.309Z,15.74
2018-09-07T03:48:50.694Z,15.77
2018-09-07T03:49:52.089Z,15.77
2018-09-07T03:50:53.597Z,15.74
2018-09-07T03:51:54.843Z,15.73
2018-09-07T03:52:56.255Z,15.74
2018-09-07T03:53:57.673Z,15.74
2018-09-07T03:54:59.063Z,15.71
2018-09-07T03:56:00.486Z,15.73
2018-09-07T03:57:01.854Z,15.77
2018-09-07T03:58:03.249Z,15.78
2018-09-07T03:59:04.646Z,15.74
2018-09-07T04:00:06.918Z,15.76
2018-09-07T04:01:08.320Z,15.77
2018-09-07T04:02:09.701Z,15.76
2018-09-07T04:03:11.084Z,15.73
2018-09-07T04:04:12.480Z,15.71
2018-09-07T04:05:13.862Z,15.77
2018-09-07T04:06:15.256Z,15.68
2018-09-07T04:07:16.644Z,15.73
2018-09-07T04:08:18.034Z,15.74
2018-09-07T04:09:19.423Z,15.74
2018-09-07T04:10:20.808Z,15.76
2018-09-07T04:11:22.232Z,15.77
2018-09-07T04:12:23.527Z,15.76
2018-09-07T04:13:24.910Z,15.80
2018-09-07T04:14:26.287Z,15.80
2018-09-07T04:15:27.666Z,15.73
2018-09-07T04:16:29.055Z,15.81
2018-09-07T04:17:30.433Z,15.85
2018-09-07T04:18:31.797Z,15.85
2018-09-07T04:19:33.197Z,15.85
2018-09-07T04:20:34.545Z,15.86
2018-09-07T04:21:35.923Z,15.86
2018-09-07T04:22:37.299Z,15.93
2018-09-07T04:23:38.681Z,15.85
2018-09-07T04:24:40.069Z,15.88
2018-09-07T04:25:41.457Z,15.85
2018-09-07T04:26:42.843Z,15.86
2018-09-07T04:27:44.223Z,15.88
2018-09-07T04:28:45.616Z,15.93
2018-09-07T04:29:47.011Z,15.89
2018-09-07T04:30:48.393Z,15.93
2018-09-07T04:31:49.770Z,15.89
2018-09-07T04:32:51.157Z,15.95
2018-09-07T04:33:52.538Z,15.89
2018-09-07T04:34:53.929Z,15.91
2018-09-07T04:35:55.308Z,15.93
2018-09-07T04:36:56.698Z,15.92
2018-09-07T04:37:58.082Z,15.93
2018-09-07T04:38:59.465Z,15.98
2018-09-07T04:40:00.847Z,15.88
2018-09-07T04:41:02.284Z,15.96
2018-09-07T04:42:03.620Z,15.96
2018-09-07T04:43:04.999Z,15.99
2018-09-07T04:44:06.391Z,16.06
2018-09-07T04:45:07.776Z,16.08
2018-09-07T04:46:09.162Z,16.03
2018-09-07T04:47:10.554Z,16.04
2018-09-07T04:48:12.012Z,16.07
2018-09-07T04:49:13.334Z,16.13
2018-09-07T04:50:14.722Z,15.98
2018-09-07T04:51:16.128Z,16.04
2018-09-07T04:52:17.504Z,16.07
2018-09-07T04:53:18.889Z,15.99
2018-09-07T04:54:20.276Z,16.08
2018-09-07T04:55:21.669Z,16.13
2018-09-07T04:56:23.062Z,16.07
2018-09-07T04:57:24.449Z,16.22
2018-09-07T04:58:25.848Z,16.23
2018-09-07T04:59:27.228Z,16.17
2018-09-07T05:00:28.634Z,16.22
2018-09-07T05:01:30.010Z,16.14
2018-09-07T05:02:31.404Z,16.16
2018-09-07T05:03:32.790Z,16.14
2018-09-07T05:04:34.140Z,16.13
2018-09-07T05:05:35.531Z,16.18
2018-09-07T05:06:36.915Z,16.13
2018-09-07T05:07:38.304Z,16.16
2018-09-07T05:08:39.696Z,16.17
2018-09-07T05:09:41.084Z,16.17
2018-09-07T05:10:42.469Z,16.08
2018-09-07T05:11:43.863Z,16.23
2018-09-07T05:12:45.244Z,16.16
2018-09-07T05:13:46.636Z,16.16
2018-09-07T05:14:48.019Z,16.25
2018-09-07T05:15:49.421Z,16.25
2018-09-07T05:16:50.796Z,16.16
2018-09-07T05:17:52.200Z,16.18
2018-09-07T05:18:53.572Z,16.14
2018-09-07T05:19:54.961Z,16.16
2018-09-07T05:20:56.339Z,16.10
2018-09-07T05:21:57.748Z,16.10
2018-09-07T05:22:59.118Z,16.07
2018-09-07T05:24:00.502Z,16.14
2018-09-07T05:25:01.886Z,16.18
2018-09-07T05:26:03.270Z,16.16
2018-09-07T05:27:04.670Z,16.18
2018-09-07T05:28:06.061Z,16.22
2018-09-07T05:29:07.438Z,16.14
2018-09-07T05:30:08.822Z,16.23
2018-09-07T05:31:10.212Z,16.18
2018-09-07T05:32:11.591Z,16.17
2018-09-07T05:33:12.979Z,16.16
2018-09-07T05:34:14.369Z,16.07
2018-09-07T05:35:15.748Z,16.08
2018-09-07T05:36:17.128Z,16.11
2018-09-07T05:37:18.515Z,16.11
2018-09-07T05:38:19.916Z,16.07
2018-09-07T16:53:59.259Z,20.93
2018-09-07T16:55:00.608Z,20.91
2018-09-07T16:56:02.003Z,20.94
2018-09-07T16:57:03.354Z,20.90
2018-09-07T16:58:04.737Z,20.83
2018-09-07T16:59:06.136Z,20.88
2018-09-07T17:00:07.516Z,20.87
2018-09-07T17:01:08.870Z,20.87
2018-09-07T17:02:10.282Z,20.82
2018-09-07T17:03:11.771Z,20.76
2018-09-07T17:04:13.180Z,20.72
2018-09-07T17:05:14.582Z,20.76
2018-09-07T17:06:15.951Z,20.79
2018-09-07T17:07:17.315Z,20.68
2018-09-07T17:08:18.667Z,20.72
2018-09-07T17:09:20.050Z,20.66
2018-09-07T17:10:22.414Z,20.71
2018-09-07T17:11:23.814Z,20.64
2018-09-07T17:12:25.237Z,20.69
2018-09-07T17:13:26.595Z,20.63
2018-09-07T17:14:28.011Z,20.66
2018-09-07T17:15:29.428Z,20.69
2018-09-07T17:16:30.814Z,20.66
2018-09-07T17:17:32.210Z,20.68
2018-09-07T17:18:33.652Z,20.66
2018-09-07T17:19:34.965Z,20.63
2018-09-07T17:20:36.376Z,20.64
2018-09-07T17:21:37.766Z,20.61
2018-09-07T17:22:39.760Z,20.72
2018-09-07T17:23:41.742Z,20.68
2018-09-07T17:24:43.157Z,20.69
2018-09-07T17:25:44.573Z,20.64
2018-09-07T17:26:45.948Z,20.63
2018-09-07T17:27:47.305Z,20.64
2018-09-07T17:28:48.704Z,20.64
2018-09-07T17:29:50.094Z,20.63
2018-09-07T17:30:51.490Z,20.56
2018-09-07T17:31:52.892Z,20.63
2018-09-07T17:32:54.307Z,20.69
2018-09-07T17:33:55.716Z,20.66
2018-09-07T17:34:57.124Z,20.61
2018-09-07T17:35:58.521Z,20.60
2018-09-07T17:36:59.910Z,20.63
2018-09-07T17:38:01.303Z,20.57
2018-09-07T17:39:02.709Z,20.60
2018-09-07T17:40:04.116Z,20.54
2018-09-07T17:41:05.496Z,20.64
2018-09-07T17:42:06.924Z,20.53
2018-09-07T17:43:08.261Z,20.68
2018-09-07T17:44:09.693Z,20.51
2018-09-07T17:45:11.097Z,20.63
2018-09-07T17:46:12.444Z,20.56
2018-09-07T17:47:13.835Z,20.68
2018-09-07T17:48:15.223Z,20.64
2018-09-07T17:49:16.616Z,20.61
2018-09-07T17:50:18.088Z,20.64
2018-09-07T17:51:19.492Z,20.58
2018-09-07T17:52:20.887Z,20.57
2018-09-07T17:53:22.322Z,20.50
2018-09-07T17:54:23.716Z,20.53
2018-09-07T17:55:25.109Z,20.51
2018-09-07T17:56:26.523Z,20.50
2018-09-07T17:57:27.899Z,20.53
2018-09-07T17:58:29.313Z,20.56
2018-09-07T17:59:30.737Z,20.54
2018-09-07T18:00:32.134Z,20.46
2018-09-07T18:01:33.541Z,20.57
2018-09-07T18:02:35.649Z,20.48
2018-09-07T18:03:37.086Z,20.54
2018-09-07T18:04:38.528Z,20.57
2018-09-07T18:05:39.960Z,20.54
2018-09-07T18:06:41.381Z,20.56
2018-09-07T18:07:42.885Z,20.53
2018-09-07T18:08:44.288Z,20.53
2018-09-07T18:09:45.684Z,20.53
2018-09-07T18:10:47.092Z,20.54
2018-09-07T18:11:48.498Z,20.54
2018-09-07T18:12:49.891Z,20.48
2018-09-07T18:13:51.296Z,20.46
2018-09-07T18:14:52.730Z,20.44
2018-09-07T18:15:54.086Z,20.50
2018-09-07T18:16:55.465Z,20.38
2018-09-07T18:17:56.934Z,20.34
2018-09-07T18:18:58.335Z,20.38
2018-09-07T18:19:59.756Z,20.37
2018-09-07T18:21:01.138Z,20.37
2018-09-07T18:22:02.572Z,20.34
2018-09-07T18:23:10.533Z,20.35
2018-09-07T18:24:11.930Z,20.40
2018-09-07T18:25:14.081Z,20.33
2018-09-07T18:26:15.489Z,20.37
2018-09-07T18:27:17.084Z,20.37
2018-09-07T18:28:19.754Z,20.37
2018-09-07T18:29:21.203Z,20.37
2018-09-07T18:30:24.227Z,20.37
2018-09-07T18:31:26.303Z,20.38
2018-09-07T18:32:27.754Z,20.33
2018-09-07T18:33:29.177Z,20.34
2018-09-07T18:34:31.178Z,20.33
2018-09-07T18:35:32.961Z,20.33
2018-09-07T18:36:34.796Z,20.26
2018-09-07T18:37:36.395Z,20.23
2018-09-07T18:38:37.925Z,20.15
2018-09-07T18:39:39.320Z,20.26
2018-09-07T18:40:40.721Z,20.19
2018-09-07T18:41:42.139Z,20.17
2018-09-07T18:42:43.543Z,20.13
2018-09-07T18:43:45.125Z,20.12
2018-09-07T18:44:46.433Z,20.02
2018-09-07T18:45:47.884Z,20.08
2018-09-07T18:46:49.341Z,20.13
2018-09-07T18:47:50.767Z,20.07
2018-09-07T18:48:52.197Z,19.97
2018-09-07T18:49:53.741Z,19.98
2018-09-07T18:50:55.756Z,20.01
2018-09-07T18:51:57.192Z,19.94
2018-09-07T18:52:58.617Z,19.95
2018-09-07T18:54:00.811Z,19.92
2018-09-07T18:55:02.279Z,20.00
2018-09-07T18:56:04.299Z,19.83
2018-09-07T18:57:05.713Z,19.87
2018-09-07T18:58:08.552Z,19.86
2018-09-07T18:59:10.095Z,19.80
2018-09-07T19:00:12.444Z,19.95
2018-09-07T19:01:13.839Z,19.92
2018-09-07T19:02:15.918Z,19.89
2018-09-07T19:03:18.005Z,19.82
2018-09-07T19:04:20.434Z,19.89
2018-09-07T19:05:21.832Z,19.90
2018-09-07T19:06:24.989Z,19.87
2018-09-07T19:07:26.443Z,19.75
2018-09-07T19:08:27.908Z,19.86
2018-09-07T19:09:29.393Z,19.83
2018-09-07T19:10:30.860Z,19.79
2018-09-07T19:11:33.042Z,19.83
2018-09-07T19:12:34.584Z,19.85
2018-09-07T19:13:35.943Z,19.76
2018-09-07T19:14:38.311Z,19.78
2018-09-07T19:15:38.896Z,19.76
2018-09-07T19:16:41.882Z,19.67
2018-09-07T19:17:43.332Z,19.76
2018-09-07T19:18:45.459Z,19.67
2018-09-07T19:19:47.923Z,19.70
2018-09-07T19:20:49.369Z,19.64
2018-09-07T19:21:50.822Z,19.67
2018-09-07T19:22:52.775Z,19.65
2018-09-07T19:23:54.207Z,19.61
2018-09-07T19:24:57.004Z,19.60
2018-09-07T19:25:58.896Z,19.60
2018-09-07T19:27:00.310Z,19.58
2018-09-07T19:28:03.448Z,19.49
2018-09-07T19:29:05.594Z,19.55
2018-09-07T19:30:07.501Z,19.52
2018-09-07T19:31:08.920Z,19.55
2018-09-07T19:32:12.584Z,19.38
2018-09-07T19:33:14.119Z,19.39
2018-09-07T19:34:16.279Z,19.52
2018-09-07T19:35:17.806Z,19.49
2018-09-07T19:36:19.991Z,19.43
2018-09-07T19:37:22.174Z,19.38
2018-09-07T19:38:26.533Z,19.43
2018-09-07T19:39:28.046Z,19.38
2018-09-07T19:40:31.360Z,19.42
2018-09-07T19:41:32.933Z,19.43
2018-09-07T19:42:35.263Z,19.38
2018-09-07T19:43:37.934Z,19.31
2018-09-07T19:44:39.385Z,19.25
2018-09-07T19:45:41.623Z,19.30
2018-09-07T19:46:43.078Z,19.25
2018-09-07T19:47:45.818Z,19.30
2018-09-07T19:48:48.936Z,19.25
2018-09-07T19:49:51.085Z,19.23
2018-09-07T19:50:54.204Z,19.23
2018-09-07T19:51:56.421Z,19.23
2018-09-07T19:52:57.794Z,19.13
2018-09-07T19:53:59.945Z,19.10
2018-09-07T19:55:01.438Z,19.21
2018-09-07T19:56:03.211Z,19.20
2018-09-07T19:57:05.245Z,19.10
2018-09-07T19:58:08.136Z,19.15
2018-09-07T19:59:10.136Z,19.12
2018-09-07T20:00:12.263Z,19.12
2018-09-07T20:01:14.429Z,19.07
2018-09-07T20:02:15.813Z,19.06
2018-09-07T20:03:18.489Z,19.07
2018-09-07T20:04:20.491Z,19.06
2018-09-07T20:05:22.674Z,19.05
2018-09-07T20:06:25.025Z,18.93
2018-09-07T20:07:27.928Z,18.90
2018-09-07T20:08:29.307Z,18.94
2018-09-07T20:09:30.708Z,18.91
2018-09-07T20:10:32.217Z,18.82
2018-09-07T20:11:33.780Z,18.87
2018-09-07T20:12:35.304Z,18.90
2018-09-07T20:13:36.732Z,18.86
2018-09-07T20:14:38.181Z,18.90
2018-09-07T20:15:39.611Z,18.79
2018-09-07T20:16:41.096Z,18.76
2018-09-07T20:17:42.548Z,18.83
2018-09-07T20:18:45.669Z,18.79
2018-09-07T20:19:47.047Z,18.82
2018-09-07T20:20:48.498Z,18.78
2018-09-07T20:21:50.832Z,18.71
2018-09-07T20:22:51.287Z,18.69
2018-09-07T20:23:52.710Z,18.72
2018-09-07T20:24:54.079Z,18.56
2018-09-07T20:25:55.543Z,18.57
2018-09-07T20:26:56.967Z,18.57
2018-09-07T20:27:58.438Z,18.54
2018-09-07T20:29:00.524Z,18.51
2018-09-07T20:30:01.969Z,18.54
2018-09-07T20:31:03.376Z,18.49
2018-09-07T20:32:04.793Z,18.39
2018-09-07T20:33:06.752Z,18.42
2018-09-07T20:34:08.194Z,18.34
2018-09-07T20:35:09.600Z,18.38
2018-09-07T20:36:11.023Z,18.39
2018-09-07T20:37:12.401Z,18.31
2018-09-07T20:38:13.884Z,18.29
2018-09-07T20:39:16.092Z,18.32
2018-09-07T20:40:17.519Z,18.32
2018-09-07T20:41:21.514Z,18.32
2018-09-07T20:42:22.917Z,18.21
2018-09-07T20:43:24.362Z,18.28
2018-09-07T20:44:25.794Z,18.14
2018-09-07T20:45:27.201Z,18.26
2018-09-07T20:46:28.599Z,18.11
2018-09-07T20:47:30.027Z,18.16
2018-09-07T20:48:31.437Z,18.16
2018-09-07T20:49:32.852Z,18.13
2018-09-07T20:50:34.273Z,18.17
2018-09-07T20:51:35.658Z,18.11
2018-09-07T20:52:37.072Z,18.11
2018-09-07T20:53:38.464Z,17.99
2018-09-07T20:54:39.866Z,18.04
2018-09-07T20:55:41.263Z,17.98
2018-09-07T20:56:42.668Z,18.02
2018-09-07T20:57:44.080Z,17.99
2018-09-07T20:58:45.476Z,17.99
2018-09-07T20:59:46.892Z,18.01
2018-09-07T21:00:48.283Z,17.99
2018-09-07T21:01:49.695Z,17.87
2018-09-07T21:02:51.162Z,17.92
2018-09-07T21:03:53.110Z,17.89
2018-09-07T21:04:54.497Z,17.84
2018-09-07T21:05:55.913Z,17.83
2018-09-07T21:06:58.065Z,17.83
2018-09-07T21:07:59.471Z,17.83
2018-09-07T21:09:00.841Z,17.74
2018-09-07T21:10:02.292Z,17.71
2018-09-07T21:11:03.660Z,17.83
2018-09-07T21:12:05.057Z,17.77
2018-09-07T21:13:06.444Z,17.70
2018-09-07T21:14:07.840Z,17.68
2018-09-07T21:15:09.230Z,17.66
2018-09-07T21:16:10.616Z,17.54
2018-09-07T21:17:12.006Z,17.49
2018-09-07T21:18:14.184Z,17.47
2018-09-07T21:19:15.596Z,17.53
2018-09-07T21:20:16.995Z,17.45
2018-09-07T21:21:18.392Z,17.46
2018-09-07T21:22:19.771Z,17.45
2018-09-07T21:23:21.168Z,17.45
2018-09-07T21:24:22.514Z,17.38
2018-09-07T21:25:23.903Z,17.36
2018-09-07T21:26:25.300Z,17.32
2018-09-07T21:27:26.692Z,17.32
2018-09-07T21:28:28.081Z,17.30
2018-09-07T21:29:29.467Z,17.25
2018-09-07T21:30:30.871Z,17.30
2018-09-07T21:31:32.245Z,17.28
2018-09-07T21:32:33.650Z,17.24
2018-09-07T21:33:35.033Z,17.18
2018-09-07T21:34:36.423Z,17.27
2018-09-07T21:35:37.809Z,17.20
2018-09-07T21:36:39.206Z,17.20
2018-09-07T21:37:40.613Z,17.18
2018-09-07T21:38:42.009Z,17.20
2018-09-07T21:39:43.387Z,17.17
2018-09-07T21:40:44.784Z,17.07
2018-09-07T21:41:46.172Z,17.05
2018-09-07T21:42:47.560Z,17.07
2018-09-07T21:43:48.944Z,17.05
2018-09-07T21:44:50.340Z,16.96
2018-09-07T21:45:51.724Z,17.00
2018-09-07T21:46:53.106Z,16.92
2018-09-07T21:47:54.492Z,16.95
2018-09-07T21:48:55.874Z,16.98
2018-09-07T21:49:57.267Z,16.96
2018-09-07T21:50:58.644Z,16.91
2018-09-07T21:52:00.030Z,16.91
2018-09-07T21:53:01.416Z,16.82
2018-09-07T21:54:02.799Z,16.88
2018-09-07T21:55:04.185Z,16.88
2018-09-07T21:56:05.632Z,16.81
2018-09-07T21:57:06.957Z,16.82
2018-09-07T21:58:08.355Z,16.78
2018-09-07T21:59:09.733Z,16.75
2018-09-07T22:00:11.122Z,16.78
2018-09-07T22:01:12.504Z,16.70
2018-09-07T22:02:13.889Z,16.70
2018-09-07T22:03:15.280Z,16.66
2018-09-07T22:04:16.665Z,16.70
2018-09-07T22:05:18.059Z,16.66
2018-09-07T22:06:19.440Z,16.59
2018-09-07T22:07:20.826Z,16.62
2018-09-07T22:08:22.215Z,16.59
2018-09-07T22:09:23.606Z,16.60
2018-09-07T22:10:24.992Z,16.65
2018-09-07T22:11:26.378Z,16.57
2018-09-07T22:12:27.767Z,16.60
2018-09-07T22:13:29.156Z,16.62
2018-09-07T22:14:30.538Z,16.54
2018-09-07T22:15:31.920Z,16.52
2018-09-07T22:16:33.315Z,16.48
2018-09-07T22:17:34.710Z,16.47
2018-09-07T22:18:36.107Z,16.48
2018-09-07T22:19:37.487Z,16.50
2018-09-07T22:20:38.871Z,16.32
2018-09-07T22:21:40.284Z,16.44
2018-09-07T22:22:41.660Z,16.42
2018-09-07T22:23:43.053Z,16.40
2018-09-07T22:24:44.435Z,16.36
2018-09-07T22:25:45.824Z,16.25
2018-09-07T22:26:47.211Z,16.32
2018-09-07T22:27:48.592Z,16.25
2018-09-07T22:28:49.984Z,16.17
2018-09-07T22:29:51.397Z,16.23
2018-09-07T22:30:52.781Z,16.30
2018-09-07T22:31:54.167Z,16.17
2018-09-07T22:32:55.574Z,16.18
2018-09-07T22:33:56.957Z,16.22
2018-09-07T22:34:58.348Z,16.13
2018-09-07T22:35:59.737Z,16.18
2018-09-07T22:37:01.118Z,16.08
2018-09-07T22:38:02.505Z,16.16
2018-09-07T22:39:03.897Z,16.16
2018-09-07T22:40:05.292Z,16.17
2018-09-07T22:41:06.716Z,16.07
2018-09-07T22:42:08.114Z,16.08
2018-09-07T22:43:09.496Z,15.99
2018-09-07T22:44:10.884Z,16.08
2018-09-07T22:45:12.284Z,16.06
2018-09-07T22:46:13.671Z,15.99
2018-09-07T22:47:15.057Z,15.93
2018-09-07T22:48:16.436Z,15.95
2018-09-07T22:49:17.822Z,15.89
2018-09-07T22:50:19.204Z,15.98
2018-09-07T22:51:20.592Z,15.89
2018-09-07T22:52:21.978Z,15.92
2018-09-07T22:53:23.372Z,15.73
2018-09-07T22:54:24.750Z,15.78
2018-09-07T22:55:26.161Z,15.80
2018-09-07T22:56:27.546Z,15.77
2018-09-07T22:57:28.925Z,15.73
2018-09-07T22:58:30.320Z,15.78
2018-09-07T22:59:31.702Z,15.73
2018-09-07T23:00:33.097Z,15.68
2018-09-07T23:01:34.492Z,15.64
2018-09-07T23:02:35.876Z,15.68
2018-09-07T23:03:37.307Z,15.62
2018-09-07T23:04:38.693Z,15.64
2018-09-07T23:05:40.088Z,15.60
2018-09-07T23:06:41.472Z,15.66
2018-09-07T23:07:42.862Z,15.71
2018-09-07T23:08:44.292Z,15.59
2018-09-07T23:09:46.517Z,15.59
2018-09-07T23:10:47.978Z,15.59
2018-09-07T23:11:49.685Z,15.59
2018-09-07T23:12:51.541Z,15.51
2018-09-07T23:13:54.219Z,15.55
2018-09-07T23:14:56.740Z,15.52
2018-09-07T23:15:58.129Z,15.43
2018-09-07T23:17:00.950Z,15.48
2018-09-07T23:18:02.330Z,15.38
2018-09-07T23:19:04.820Z,15.46
2018-09-07T23:20:06.985Z,15.40
2018-09-07T23:21:09.295Z,15.40
2018-09-07T23:22:11.830Z,15.37
2018-09-07T23:23:13.212Z,15.27
2018-09-07T23:24:14.899Z,15.22
2018-09-07T23:25:17.085Z,15.28
2018-09-07T23:26:19.748Z,15.23
2018-09-07T23:27:22.957Z,15.25
2018-09-07T23:28:24.794Z,15.20
2018-09-07T23:29:26.175Z,15.16
2018-09-07T23:30:27.564Z,15.12
2018-09-07T23:31:28.989Z,15.16
2018-09-07T23:32:32.146Z,15.16
2018-09-07T23:33:33.526Z,15.13
2018-09-07T23:34:34.915Z,15.03
2018-09-07T23:35:36.705Z,15.07
2018-09-07T23:36:38.080Z,15.04
2018-09-07T23:37:41.267Z,15.07
2018-09-07T23:38:42.641Z,14.95
2018-09-07T23:39:44.393Z,14.91
2018-09-07T23:40:46.167Z,14.90
2018-09-07T23:41:48.508Z,14.87
2018-09-07T23:42:49.899Z,14.85
2018-09-07T23:43:51.283Z,14.87
2018-09-07T23:44:54.363Z,14.78
2018-09-07T23:45:56.706Z,14.82
2018-09-07T23:46:58.094Z,14.82
2018-09-07T23:47:59.476Z,14.80
2018-09-07T23:49:02.106Z,14.66
2018-09-07T23:50:03.442Z,14.64
2018-09-07T23:51:05.710Z,14.72
2018-09-07T23:52:07.106Z,14.67
2018-09-07T23:53:08.820Z,14.60
2018-09-07T23:54:12.081Z,14.64
2018-09-07T23:55:13.458Z,14.59
2018-09-07T23:56:15.978Z,14.54
2018-09-07T23:57:17.363Z,14.56
2018-09-07T23:58:18.826Z,14.57
2018-09-07T23:59:20.207Z,14.52
